Time;durP1;ratioP1;P1;durP2;ratioP2;P2;SDS_P1;SDS_P2;PMS_P1;PMS_P2;Temp;Humidity;BMP_temperature;BMP_pressure;BME280_temperature;BME280_humidity;BME280_pressure;Samples;Min_cycle;Max_cycle;Signal;HPM_P1;HPM_P2
2022/07/06 00:01:20;;;;;;;1.17;1.08;;;26.60;56.10;;;;;;5046538;28;20053;-64
2022/07/06 00:03:47;;;;;;;1.23;1.23;;;26.60;56.00;;;;;;5045955;28;20411;-64
2022/07/06 00:06:21;;;;;;;1.67;1.60;;;26.70;56.10;;;;;;5046016;28;20142;-64
2022/07/06 00:08:48;;;;;;;1.40;1.40;;;26.70;56.10;;;;;;5045719;28;20067;-64
2022/07/06 00:11:15;;;;;;;1.40;1.40;;;26.60;56.00;;;;;;5045863;28;20410;-64
2022/07/06 00:13:43;;;;;;;1.55;1.45;;;26.70;56.00;;;;;;5045325;28;20474;-64
2022/07/06 00:16:10;;;;;;;1.50;1.50;;;26.60;55.90;;;;;;5045960;28;20504;-64
2022/07/06 00:18:37;;;;;;;1.27;1.25;;;26.60;56.00;;;;;;5045862;28;20049;-64
2022/07/06 00:21:05;;;;;;;1.40;1.40;;;26.60;56.00;;;;;;5044199;28;20049;-64
2022/07/06 00:23:32;;;;;;;1.45;1.35;;;26.60;56.00;;;;;;5044730;28;20123;-64
2022/07/06 00:25:59;;;;;;;1.50;1.50;;;26.60;56.00;;;;;;5045555;28;20091;-64
2022/07/06 00:28:26;;;;;;;1.33;1.33;;;26.60;56.00;;;;;;5045602;28;20040;-64
2022/07/06 00:30:54;;;;;;;1.15;1.15;;;26.60;56.00;;;;;;5045539;28;20130;-64
2022/07/06 00:33:21;;;;;;;1.50;1.40;;;26.60;56.00;;;;;;5046054;28;20393;-64
2022/07/06 00:35:49;;;;;;;1.20;1.20;;;26.60;56.00;;;;;;5044855;28;20099;-65
2022/07/06 00:38:16;;;;;;;1.13;1.13;;;26.60;56.00;;;;;;5045543;28;20092;-65
2022/07/06 00:40:43;;;;;;;1.45;1.45;;;26.60;56.00;;;;;;5043666;28;20417;-65
2022/07/06 00:43:10;;;;;;;1.25;1.25;;;26.60;56.00;;;;;;5045771;28;20109;-64
2022/07/06 00:45:37;;;;;;;1.30;1.30;;;26.60;56.00;;;;;;5043770;28;20568;-64
2022/07/06 00:48:05;;;;;;;1.30;1.30;;;26.60;56.00;;;;;;5045288;28;20311;-65
2022/07/06 00:50:33;;;;;;;1.38;1.38;;;26.60;56.00;;;;;;5045165;28;20466;-64
2022/07/06 00:53:03;;;;;;;1.73;1.63;;;26.60;56.00;;;;;;5045154;28;20089;-64
2022/07/06 00:55:33;;;;;;;1.60;1.58;;;26.50;55.90;;;;;;5045126;28;20304;-64
2022/07/06 00:58:03;;;;;;;;;;;26.50;55.90;;;;;;5043594;28;20049;-65
2022/07/06 01:00:31;;;;;;;1.40;1.40;;;26.50;55.90;;;;;;5045089;28;19971;-64
2022/07/06 01:02:59;;;;;;;1.63;1.52;;;26.50;55.90;;;;;;5045120;28;20137;-64
2022/07/06 01:05:27;;;;;;;1.85;1.75;;;26.50;55.90;;;;;;5044639;28;20041;-64
2022/07/06 01:07:56;;;;;;;1.55;1.45;;;26.50;55.90;;;;;;5045094;28;20110;-64
2022/07/06 01:10:24;;;;;;;1.38;1.35;;;26.50;55.90;;;;;;5043897;28;20128;-64
2022/07/06 01:12:51;;;;;;;1.23;1.20;;;26.50;55.90;;;;;;5044677;28;20104;-65
2022/07/06 01:15:23;;;;;;;1.90;1.80;;;26.50;55.90;;;;;;5043439;28;20049;-64
2022/07/06 01:17:51;;;;;;;1.52;1.48;;;26.50;55.90;;;;;;5045093;28;20045;-65
2022/07/06 01:20:21;;;;;;;1.52;1.52;;;26.50;55.90;;;;;;5044993;28;20061;-64
2022/07/06 01:22:50;;;;;;;1.40;1.40;;;26.50;55.90;;;;;;5043831;28;20368;-66
2022/07/06 01:25:19;;;;;;;1.30;1.30;;;26.50;55.80;;;;;;5044580;28;20271;-64
2022/07/06 01:27:47;;;;;;;1.83;1.73;;;26.50;55.80;;;;;;5046163;28;20560;-64
2022/07/06 01:30:17;;;;;;;1.70;1.70;;;26.50;55.80;;;;;;5045306;28;20132;-64
2022/07/06 01:32:45;;;;;;;1.48;1.48;;;26.50;55.70;;;;;;5044867;28;20473;-64
2022/07/06 01:35:16;;;;;;;1.52;1.52;;;26.50;55.70;;;;;;5045811;28;20077;-64
2022/07/06 01:37:43;;;;;;;2.05;1.95;;;26.50;55.70;;;;;;5044591;28;20049;-64
2022/07/06 01:40:12;;;;;;;1.70;1.60;;;26.50;55.70;;;;;;5045200;28;20136;-65
2022/07/06 01:42:40;;;;;;;1.80;1.70;;;26.50;55.70;;;;;;5045662;28;20041;-64
2022/07/06 01:45:08;;;;;;;1.60;1.52;;;26.50;55.70;;;;;;5045731;28;20184;-64
2022/07/06 01:47:35;;;;;;;1.88;1.77;;;26.50;55.60;;;;;;5044514;28;20044;-63
2022/07/06 01:50:06;;;;;;;1.95;1.85;;;26.50;55.60;;;;;;5045327;28;20080;-64
2022/07/06 01:52:33;;;;;;;2.00;1.90;;;26.50;55.60;;;;;;5045361;28;20402;-65
2022/07/06 01:55:00;;;;;;;1.42;1.42;;;26.50;55.60;;;;;;5044458;28;20045;-64
2022/07/06 01:57:28;;;;;;;1.58;1.58;;;26.50;55.60;;;;;;5046223;28;20395;-63
2022/07/06 01:59:55;;;;;;;1.65;1.55;;;26.50;55.60;;;;;;5045779;28;20049;-64
2022/07/06 02:02:22;;;;;;;2.15;2.05;;;26.50;55.60;;;;;;5043819;28;20137;-63
2022/07/06 02:04:49;;;;;;;1.77;1.52;;;26.50;55.60;;;;;;5045766;28;20049;-63
2022/07/06 02:07:16;;;;;;;1.73;1.63;;;26.50;55.60;;;;;;5045478;28;20441;-63
2022/07/06 02:09:43;;;;;;;1.55;1.55;;;26.50;55.60;;;;;;5048668;28;20135;-64
2022/07/06 02:12:11;;;;;;;1.77;1.67;;;26.50;55.60;;;;;;5048864;28;20070;-63
2022/07/06 02:14:38;;;;;;;2.00;1.90;;;26.50;55.60;;;;;;5049614;28;20083;-63
2022/07/06 02:17:05;;;;;;;1.88;1.77;;;26.50;55.60;;;;;;5048936;28;20092;-63
2022/07/06 02:19:32;;;;;;;1.80;1.70;;;26.40;55.50;;;;;;5050008;28;20076;-63
2022/07/06 02:21:59;;;;;;;1.52;1.42;;;26.40;56.10;;;;;;5049021;28;20049;-64
2022/07/06 02:24:26;;;;;;;1.65;1.58;;;26.50;55.60;;;;;;5031007;28;20045;-63
2022/07/06 02:26:54;;;;;;;1.88;1.77;;;26.40;55.50;;;;;;5030783;28;20425;-63
2022/07/06 02:29:21;;;;;;;1.73;1.63;;;26.40;55.50;;;;;;5048972;28;20045;-63
2022/07/06 02:31:48;;;;;;;1.60;1.50;;;26.40;55.50;;;;;;5048951;28;20045;-63
2022/07/06 02:34:15;;;;;;;1.95;1.85;;;26.40;55.50;;;;;;5048774;28;20045;-63
2022/07/06 02:36:43;;;;;;;1.95;1.85;;;26.40;55.50;;;;;;5047983;28;20083;-63
2022/07/06 02:39:10;;;;;;;1.65;1.63;;;26.40;55.50;;;;;;5049433;28;20121;-63
2022/07/06 02:41:37;;;;;;;1.80;1.70;;;26.40;55.50;;;;;;5048644;28;20098;-63
2022/07/06 02:44:04;;;;;;;1.83;1.73;;;26.40;55.50;;;;;;5049170;28;20076;-63
2022/07/06 02:46:31;;;;;;;1.40;1.40;;;26.40;55.50;;;;;;5047213;28;20052;-63
2022/07/06 02:48:58;;;;;;;1.77;1.67;;;26.40;55.50;;;;;;5046304;28;20068;-63
2022/07/06 02:51:25;;;;;;;1.67;1.67;;;26.40;55.50;;;;;;5048127;28;20084;-63
2022/07/06 02:53:52;;;;;;;1.55;1.55;;;26.40;55.50;;;;;;5048601;28;20049;-63
2022/07/06 02:56:19;;;;;;;1.63;1.63;;;26.40;55.40;;;;;;5047855;28;20280;-63
2022/07/06 02:58:47;;;;;;;1.70;1.65;;;26.40;55.40;;;;;;5048417;28;20767;-63
2022/07/06 03:01:14;;;;;;;1.75;1.65;;;26.40;55.40;;;;;;5047930;28;20049;-63
2022/07/06 03:03:41;;;;;;;1.40;1.40;;;26.40;55.30;;;;;;5048673;28;20045;-63
2022/07/06 03:06:09;;;;;;;3.55;2.20;;;26.40;55.30;;;;;;5048040;28;20055;-63
2022/07/06 03:08:36;;;;;;;1.75;1.65;;;26.40;55.30;;;;;;5046905;28;20475;-63
2022/07/06 03:11:03;;;;;;;1.50;1.50;;;26.40;55.20;;;;;;5047378;28;20073;-63
2022/07/06 03:13:30;;;;;;;1.70;1.60;;;26.40;55.20;;;;;;5047263;28;20529;-63
2022/07/06 03:15:58;;;;;;;1.88;1.77;;;26.40;55.20;;;;;;5047808;28;20045;-64
2022/07/06 03:18:25;;;;;;;1.95;1.85;;;26.40;55.10;;;;;;5047041;28;20056;-64
2022/07/06 03:20:53;;;;;;;1.85;1.75;;;26.40;55.10;;;;;;5046504;28;20130;-63
2022/07/06 03:23:20;;;;;;;1.60;1.50;;;26.50;55.10;;;;;;5045554;28;20075;-63
2022/07/06 03:25:47;;;;;;;1.83;1.73;;;26.50;54.90;;;;;;5047242;28;20497;-63
2022/07/06 03:28:14;;;;;;;1.75;1.65;;;26.50;54.80;;;;;;5047364;28;20045;-64
2022/07/06 03:30:42;;;;;;;1.83;1.73;;;26.50;54.70;;;;;;5037862;28;20083;-63
2022/07/06 03:33:09;;;;;;;1.90;1.80;;;26.50;54.60;;;;;;5046049;28;20092;-63
2022/07/06 03:35:36;;;;;;;1.65;1.58;;;26.50;54.40;;;;;;5045084;28;20501;-64
2022/07/06 03:38:03;;;;;;;1.52;1.50;;;26.50;54.30;;;;;;5051061;28;20288;-63
2022/07/06 03:40:30;;;;;;;1.92;1.83;;;26.50;54.30;;;;;;5043654;28;20141;-64
2022/07/06 03:42:57;;;;;;;1.88;1.73;;;26.60;54.20;;;;;;5044606;28;20083;-64
2022/07/06 03:45:24;;;;;;;1.63;1.63;;;26.60;54.20;;;;;;5046841;28;20553;-63
2022/07/06 03:47:52;;;;;;;1.85;1.75;;;26.60;54.10;;;;;;5047012;28;20399;-63
2022/07/06 03:50:19;;;;;;;1.88;1.77;;;26.60;54.00;;;;;;5046314;28;20536;-63
2022/07/06 03:52:46;;;;;;;2.08;1.98;;;26.60;53.90;;;;;;5046227;28;20509;-63
2022/07/06 03:55:13;;;;;;;2.05;1.92;;;26.60;53.80;;;;;;5047116;28;20098;-64
2022/07/06 03:57:40;;;;;;;1.85;1.75;;;26.60;53.80;;;;;;5047438;28;20570;-63
2022/07/06 04:00:09;;;;;;;1.80;1.80;;;26.60;53.70;;;;;;5045020;28;20053;-63
2022/07/06 04:02:36;;;;;;;1.98;1.88;;;26.60;53.50;;;;;;5045568;28;20041;-63
2022/07/06 04:05:04;;;;;;;1.90;1.80;;;26.60;53.50;;;;;;5047203;28;20048;-63
2022/07/06 04:07:31;;;;;;;2.00;1.90;;;26.70;53.50;;;;;;5045833;28;20044;-63
2022/07/06 04:09:58;;;;;;;1.73;1.73;;;26.70;53.40;;;;;;5046355;28;20118;-63
2022/07/06 04:12:25;;;;;;;2.05;1.95;;;26.70;53.30;;;;;;5045555;28;20045;-63
2022/07/06 04:14:55;;;;;;;1.95;1.85;;;26.70;53.20;;;;;;5044648;28;20052;-63
2022/07/06 04:20:10;;;;;;;1.95;1.83;;;26.70;53.00;;;;;;5045536;28;20037;-63
2022/07/06 04:22:38;;;;;;;2.33;2.10;;;26.70;53.00;;;;;;5045348;28;20853;-63
2022/07/06 04:25:06;;;;;;;1.95;1.88;;;26.80;52.90;;;;;;5044121;28;20151;-64
2022/07/06 04:27:33;;;;;;;2.15;2.05;;;26.70;52.80;;;;;;5045083;28;20073;-63
2022/07/06 04:30:00;;;;;;;2.40;1.90;;;26.80;52.80;;;;;;5045825;28;20045;-63
2022/07/06 04:32:27;;;;;;;2.40;2.30;;;26.80;52.70;;;;;;5044731;28;20087;-63
2022/07/06 04:34:55;;;;;;;1.95;1.90;;;26.80;52.60;;;;;;5044125;28;20098;-65
2022/07/06 04:37:22;;;;;;;2.17;2.08;;;26.80;52.50;;;;;;5044765;28;20079;-63
2022/07/06 04:39:49;;;;;;;2.47;2.35;;;26.80;52.40;;;;;;5045096;28;20076;-63
2022/07/06 04:42:16;;;;;;;2.30;2.10;;;26.80;52.30;;;;;;5044690;28;20107;-63
2022/07/06 04:44:44;;;;;;;2.75;2.58;;;26.90;52.20;;;;;;5045196;28;20045;-63
2022/07/06 04:47:11;;;;;;;1.90;1.80;;;26.90;52.10;;;;;;5044844;28;20099;-65
2022/07/06 04:49:39;;;;;;;2.75;2.17;;;26.90;52.00;;;;;;5049102;28;20132;-65
2022/07/06 04:52:07;;;;;;;2.30;2.20;;;26.90;51.90;;;;;;5038491;28;20437;-63
2022/07/06 04:54:35;;;;;;;2.15;2.05;;;26.90;51.80;;;;;;5041138;28;20072;-63
2022/07/06 04:57:02;;;;;;;2.17;2.08;;;26.90;51.70;;;;;;5044712;28;20547;-63
2022/07/06 04:59:36;;;;;;;1.95;1.88;;;26.90;51.60;;;;;;5028052;28;20138;-63
2022/07/06 05:02:03;;;;;;;1.90;1.80;;;27.00;51.50;;;;;;5045670;28;20106;-63
2022/07/06 05:04:30;;;;;;;2.65;2.05;;;26.90;51.90;;;;;;5044387;28;20110;-63
2022/07/06 05:06:58;;;;;;;2.03;1.92;;;27.00;51.50;;;;;;5048157;28;20048;-62
2022/07/06 05:09:25;;;;;;;2.35;2.25;;;26.90;51.40;;;;;;5046358;28;20055;-64
2022/07/06 05:11:53;;;;;;;2.42;2.33;;;26.90;51.50;;;;;;5047447;28;20092;-63
2022/07/06 05:14:20;;;;;;;2.20;2.10;;;26.80;51.70;;;;;;5045919;28;20115;-65
2022/07/06 05:16:47;;;;;;;2.10;2.00;;;26.60;51.90;;;;;;5047473;28;20049;-65
2022/07/06 05:19:14;;;;;;;2.08;1.98;;;26.40;52.30;;;;;;5047019;28;20053;-65
2022/07/06 05:21:42;;;;;;;2.35;2.25;;;26.20;52.80;;;;;;5042568;28;20118;-64
2022/07/06 05:24:09;;;;;;;2.20;2.10;;;26.00;53.30;;;;;;5036803;28;20049;-65
2022/07/06 05:26:36;;;;;;;2.40;2.22;;;25.80;53.40;;;;;;5035570;28;20068;-65
2022/07/06 05:29:03;;;;;;;2.97;2.00;;;25.70;53.40;;;;;;5044767;28;20500;-63
2022/07/06 05:31:30;;;;;;;1.90;1.80;;;25.50;53.10;;;;;;5042674;28;20130;-63
2022/07/06 05:33:58;;;;;;;2.13;2.00;;;25.40;52.90;;;;;;5037635;28;20045;-63
2022/07/06 05:36:25;;;;;;;1.95;1.90;;;25.30;52.80;;;;;;5042478;28;20114;-62
2022/07/06 05:38:53;;;;;;;2.17;2.08;;;25.10;52.30;;;;;;5035494;28;20049;-63
2022/07/06 05:41:20;;;;;;;1.60;1.60;;;24.90;52.10;;;;;;5038732;28;20591;-63
2022/07/06 05:43:47;;;;;;;2.22;2.13;;;24.80;52.00;;;;;;5046009;28;20095;-63
2022/07/06 05:46:14;;;;;;;1.90;1.80;;;24.70;51.90;;;;;;5045634;28;20094;-63
2022/07/06 05:51:29;;;;;;;2.20;2.10;;;24.30;51.70;;;;;;5042799;28;20140;-65
2022/07/06 05:53:56;;;;;;;1.92;1.83;;;24.20;51.90;;;;;;5046821;28;20103;-65
2022/07/06 05:56:23;;;;;;;2.10;2.00;;;24.10;52.10;;;;;;5045647;28;20543;-65
2022/07/06 05:58:51;;;;;;;1.90;1.80;;;24.00;52.30;;;;;;5048850;28;20052;-65
2022/07/06 06:01:18;;;;;;;2.50;2.40;;;23.90;52.40;;;;;;5043566;28;20049;-64
2022/07/06 06:03:45;;;;;;;2.13;2.03;;;23.90;52.60;;;;;;5043533;28;20289;-64
2022/07/06 06:06:12;;;;;;;2.20;2.10;;;23.80;52.70;;;;;;5038179;28;20071;-64
2022/07/06 06:08:39;;;;;;;2.42;2.25;;;23.70;52.80;;;;;;5042999;28;20053;-65
2022/07/06 06:11:07;;;;;;;2.42;2.22;;;23.70;53.20;;;;;;5039250;28;20826;-64
2022/07/06 06:13:37;;;;;;;5.00;2.22;;;23.60;53.30;;;;;;5040698;28;20049;-66
2022/07/06 06:16:05;;;;;;;2.40;2.20;;;23.60;52.10;;;;;;5042973;28;20041;-66
2022/07/06 06:18:32;;;;;;;2.50;2.30;;;23.30;51.00;;;;;;5048443;28;20053;-66
2022/07/06 06:21:07;;;;;;;2.15;2.05;;;23.00;51.50;;;;;;5047120;28;20068;-65
2022/07/06 06:23:34;;;;;;;2.92;2.00;;;22.80;52.20;;;;;;5042135;28;20049;-65
2022/07/06 06:26:02;;;;;;;3.58;2.30;;;22.60;52.50;;;;;;5045960;28;20041;-65
2022/07/06 06:28:29;;;;;;;2.30;2.20;;;22.30;53.30;;;;;;5042566;28;20056;-65
2022/07/06 06:30:56;;;;;;;3.15;2.38;;;22.10;53.80;;;;;;5040872;28;20497;-65
2022/07/06 06:33:24;;;;;;;3.15;2.58;;;22.00;54.10;;;;;;5039996;28;20108;-65
2022/07/06 06:35:52;;;;;;;3.78;2.35;;;21.90;54.50;;;;;;5045411;28;20041;-65
2022/07/06 06:38:21;;;;;;;2.50;2.30;;;21.70;54.80;;;;;;5042679;28;20052;-66
2022/07/06 06:40:49;;;;;;;2.53;2.33;;;21.70;55.20;;;;;;5042524;28;20060;-66
2022/07/06 06:43:16;;;;;;;2.88;2.55;;;21.60;55.70;;;;;;5055016;28;20855;-66
2022/07/06 06:45:44;;;;;;;3.78;2.70;;;21.50;56.20;;;;;;5034906;28;20055;-65
2022/07/06 06:48:11;;;;;;;4.63;2.40;;;21.50;56.90;;;;;;5035681;28;20103;-65
2022/07/06 06:50:44;;;;;;;2.65;2.45;;;21.50;57.30;;;;;;5040818;28;20148;-64
2022/07/06 06:53:12;;;;;;;3.05;2.85;;;21.60;57.80;;;;;;5045020;28;20098;-64
2022/07/06 06:55:39;;;;;;;2.50;2.30;;;21.60;57.50;;;;;;5040281;28;20421;-63
2022/07/06 06:58:06;;;;;;;2.47;2.28;;;21.70;57.60;;;;;;5023006;28;20045;-66
2022/07/06 07:00:34;;;;;;;2.17;2.08;;;21.70;57.80;;;;;;5047437;28;20463;-65
2022/07/06 07:03:01;;;;;;;2.28;2.17;;;21.80;57.90;;;;;;5069862;28;20076;-64
2022/07/06 07:05:28;;;;;;;2.30;2.20;;;21.80;58.00;;;;;;5035734;28;20460;-64
2022/07/06 07:07:58;;;;;;;2.05;1.90;;;21.80;58.10;;;;;;5038101;28;20077;-65
2022/07/06 07:10:31;;;;;;;1.85;1.75;;;21.80;58.10;;;;;;5045333;28;20052;-64
2022/07/06 07:12:58;;;;;;;1.92;1.83;;;21.90;58.00;;;;;;5042392;28;20372;-65
2022/07/06 07:15:26;;;;;;;2.08;1.98;;;21.90;57.90;;;;;;5043412;28;20053;-64
2022/07/06 07:17:53;;;;;;;2.25;2.00;;;21.90;57.90;;;;;;5036614;28;21117;-64
2022/07/06 07:20:20;;;;;;;1.42;1.42;;;21.90;57.70;;;;;;5038668;28;20041;-64
2022/07/06 07:22:47;;;;;;;2.33;2.13;;;21.90;57.70;;;;;;5035954;28;20049;-65
2022/07/06 07:25:15;;;;;;;1.80;1.70;;;21.90;57.90;;;;;;5039511;28;20154;-64
2022/07/06 07:27:42;;;;;;;2.10;1.90;;;21.90;58.00;;;;;;5030611;28;20048;-65
2022/07/06 07:30:10;;;;;;;2.08;1.98;;;21.90;58.00;;;;;;5041589;28;20501;-65
2022/07/06 07:32:37;;;;;;;1.80;1.70;;;22.00;58.00;;;;;;5036268;28;20049;-65
2022/07/06 07:35:04;;;;;;;1.70;1.60;;;21.90;57.90;;;;;;5041860;28;20053;-64
2022/07/06 07:37:31;;;;;;;2.00;1.90;;;22.00;58.00;;;;;;5039406;28;20736;-62
2022/07/06 07:40:00;;;;;;;1.52;1.52;;;22.00;58.10;;;;;;5037213;28;20053;-63
2022/07/06 07:42:27;;;;;;;2.00;1.90;;;22.00;58.10;;;;;;5039969;28;20164;-63
2022/07/06 07:44:54;;;;;;;2.00;1.90;;;22.00;57.90;;;;;;5036612;28;20562;-64
2022/07/06 07:47:21;;;;;;;1.88;1.77;;;22.00;57.80;;;;;;5036352;28;20057;-63
2022/07/06 07:49:49;;;;;;;1.60;1.50;;;22.00;57.90;;;;;;5031269;28;20107;-63
2022/07/06 07:52:16;;;;;;;1.23;1.23;;;22.00;57.80;;;;;;5043816;28;20041;-64
2022/07/06 07:54:44;;;;;;;2.80;1.90;;;22.00;57.80;;;;;;5034890;28;20053;-64
2022/07/06 07:57:20;;;;;;;1.73;1.63;;;22.00;58.40;;;;;;5036835;28;20080;-66
2022/07/06 07:59:47;;;;;;;1.75;1.65;;;21.90;57.90;;;;;;5033150;28;20502;-65
2022/07/06 08:02:14;;;;;;;1.50;1.50;;;21.90;57.90;;;;;;5025739;28;20048;-62
2022/07/06 08:04:42;;;;;;;1.77;1.67;;;21.90;57.90;;;;;;5038632;28;20119;-63
2022/07/06 08:07:09;;;;;;;1.90;1.80;;;21.90;58.00;;;;;;5032054;28;20045;-62
2022/07/06 08:09:36;;;;;;;1.60;1.52;;;22.00;57.80;;;;;;5032012;28;20053;-64
2022/07/06 08:12:04;;;;;;;1.50;1.40;;;22.00;57.80;;;;;;5033128;28;20060;-62
2022/07/06 08:14:32;;;;;;;1.63;1.52;;;22.00;57.70;;;;;;5045269;28;20044;-63
2022/07/06 08:16:59;;;;;;;2.58;1.70;;;22.00;57.60;;;;;;5040524;28;20053;-64
2022/07/06 08:19:27;;;;;;;2.42;1.45;;;22.00;57.80;;;;;;5038237;28;20584;-63
2022/07/06 08:21:54;;;;;;;1.75;1.65;;;22.00;57.80;;;;;;5037833;28;20514;-62
2022/07/06 08:24:21;;;;;;;1.70;1.60;;;22.00;57.70;;;;;;5039483;28;20061;-65
2022/07/06 08:26:48;;;;;;;1.70;1.60;;;22.10;59.10;;;;;;5037266;28;20048;-63
2022/07/06 08:29:16;;;;;;;1.48;1.38;;;22.10;57.40;;;;;;5040267;28;20084;-63
2022/07/06 08:31:43;;;;;;;1.85;1.75;;;22.10;58.90;;;;;;5036899;28;20501;-62
2022/07/06 08:34:31;;;;;;;1.52;1.42;;;22.20;57.20;;;;;;5037038;28;20131;-62
2022/07/06 08:37:01;;;;;;;1.73;1.63;;;22.30;57.60;;;;;;5038983;28;20406;-63
2022/07/06 08:39:28;;;;;;;1.42;1.33;;;22.30;57.40;;;;;;5039367;28;20049;-63
2022/07/06 08:41:58;;;;;;;2.00;1.80;;;22.30;58.00;;;;;;5034948;28;20562;-63
2022/07/06 08:44:26;;;;;;;2.10;1.90;;;22.30;57.60;;;;;;5034995;28;20045;-63
2022/07/06 08:46:57;;;;;;;1.50;1.40;;;22.40;56.90;;;;;;5034353;28;20473;-63
2022/07/06 08:49:26;;;;;;;1.50;1.40;;;22.40;56.40;;;;;;5032373;28;20495;-62
2022/07/06 08:51:54;;;;;;;1.85;1.40;;;22.30;55.80;;;;;;5037511;28;20665;-62
2022/07/06 08:54:22;;;;;;;1.70;1.60;;;22.30;56.20;;;;;;5036670;28;20540;-64
2022/07/06 08:56:50;;;;;;;1.80;1.70;;;22.20;55.50;;;;;;5051061;28;20049;-64
2022/07/06 08:59:17;;;;;;;1.77;1.33;;;22.10;55.30;;;;;;5034937;28;20416;-63
2022/07/06 09:01:46;;;;;;;1.45;1.45;;;22.00;57.00;;;;;;5036027;28;20527;-63
2022/07/06 09:04:18;;;;;;;3.20;1.90;;;21.90;57.70;;;;;;5032766;28;20079;-64
2022/07/06 09:06:47;;;;;;;1.23;1.23;;;21.90;56.70;;;;;;5035793;28;20333;-63
2022/07/06 09:09:21;;;;;;;1.67;1.30;;;21.80;56.10;;;;;;5038111;28;20501;-65
2022/07/06 09:11:49;;;;;;;1.63;1.30;;;21.70;56.30;;;;;;5035286;28;20481;-66
2022/07/06 09:14:18;;;;;;;1.30;1.30;;;21.60;55.10;;;;;;5034809;28;20497;-62
2022/07/06 09:16:51;;;;;;;3.58;1.98;;;21.50;53.90;;;;;;5036233;28;20049;-63
2022/07/06 09:19:18;;;;;;;1.88;1.50;;;21.40;55.10;;;;;;5041314;28;20090;-62
2022/07/06 09:21:45;;;;;;;1.58;1.30;;;21.20;54.90;;;;;;5041319;28;20098;-65
2022/07/06 09:24:13;;;;;;;1.50;1.50;;;21.20;55.00;;;;;;5042546;28;20216;-65
2022/07/06 09:26:41;;;;;;;1.50;1.40;;;21.10;54.80;;;;;;5043928;28;20399;-64
2022/07/06 09:29:10;;;;;;;1.33;1.20;;;21.00;54.80;;;;;;5043448;28;20044;-61
2022/07/06 09:31:38;;;;;;;1.73;1.63;;;20.90;54.90;;;;;;5036638;28;20057;-61
2022/07/06 09:34:07;;;;;;;1.58;1.48;;;20.90;55.30;;;;;;5042126;28;20060;-60
2022/07/06 09:36:46;;;;;;;2.22;1.63;;;20.90;55.10;;;;;;5039321;28;20075;-61
2022/07/06 09:39:23;;;;;;;1.15;1.15;;;20.80;55.20;;;;;;5037395;28;20049;-61
2022/07/06 09:41:53;;;;;;;1.40;1.40;;;20.80;55.40;;;;;;5036134;28;20479;-61
2022/07/06 09:44:26;;;;;;;1.40;1.40;;;20.70;56.70;;;;;;5037248;28;20460;-63
2022/07/06 09:46:58;;;;;;;1.50;1.35;;;20.80;57.10;;;;;;5043733;28;20080;-65
2022/07/06 09:49:26;;;;;;;1.50;1.40;;;20.80;56.90;;;;;;5031490;28;21836;-62
2022/07/06 09:51:56;;;;;;;1.35;1.35;;;20.80;57.20;;;;;;5031219;28;20052;-64
2022/07/06 09:54:24;;;;;;;2.55;1.23;;;20.80;57.30;;;;;;5029689;28;20174;-64
2022/07/06 09:56:53;;;;;;;2.53;1.45;;;20.90;56.80;;;;;;5038767;28;20053;-63
2022/07/06 09:59:22;;;;;;;1.40;1.38;;;20.90;56.50;;;;;;5041676;28;20052;-63
2022/07/06 10:01:52;;;;;;;1.70;1.60;;;21.00;56.00;;;;;;5046738;28;20434;-63
2022/07/06 10:04:20;;;;;;;2.60;1.58;;;21.00;55.90;;;;;;5038025;28;20041;-63
2022/07/06 10:06:48;;;;;;;1.33;1.33;;;21.00;55.60;;;;;;5041985;28;21133;-64
2022/07/06 10:09:17;;;;;;;1.38;1.27;;;21.00;55.50;;;;;;5048303;28;20044;-64
2022/07/06 10:11:50;;;;;;;1.48;1.45;;;21.00;55.50;;;;;;5049349;28;20090;-64
2022/07/06 10:14:23;;;;;;;1.33;1.23;;;20.90;55.80;;;;;;5041515;28;20511;-65
2022/07/06 10:16:50;;;;;;;1.50;1.40;;;20.90;55.50;;;;;;5038900;28;20041;-65
2022/07/06 10:19:19;;;;;;;1.10;1.02;;;20.90;55.60;;;;;;5043344;28;20156;-64
2022/07/06 10:21:48;;;;;;;1.55;1.33;;;20.90;55.40;;;;;;5044251;28;20789;-65
2022/07/06 10:24:15;;;;;;;1.20;1.20;;;20.80;55.40;;;;;;5038050;28;20053;-65
2022/07/06 10:26:42;;;;;;;1.17;1.17;;;20.80;55.40;;;;;;5040167;28;20532;-65
2022/07/06 10:29:10;;;;;;;1.20;1.20;;;20.80;55.40;;;;;;5039429;28;20084;-65
2022/07/06 10:31:43;;;;;;;1.73;1.63;;;20.80;55.40;;;;;;5037305;28;20524;-65
2022/07/06 10:34:13;;;;;;;1.33;1.30;;;20.80;55.30;;;;;;5039152;28;20053;-65
2022/07/06 10:36:43;;;;;;;1.30;1.20;;;20.80;55.50;;;;;;5032645;28;20052;-65
2022/07/06 10:41:59;;;;;;;1.17;1.10;;;20.70;55.50;;;;;;5042625;28;20049;-65
2022/07/06 10:44:27;;;;;;;1.08;1.08;;;20.60;55.70;;;;;;5037536;28;20041;-65
2022/07/06 10:46:57;;;;;;;0.90;0.90;;;20.60;55.70;;;;;;5035237;28;20045;-65
2022/07/06 10:49:25;;;;;;;1.17;1.10;;;20.70;55.80;;;;;;5038542;28;20118;-65
2022/07/06 10:52:17;;;;;;;1.20;1.15;;;20.60;55.90;;;;;;5043405;28;20075;-65
2022/07/06 10:54:44;;;;;;;1.08;1.08;;;20.70;55.90;;;;;;5039377;28;20103;-65
2022/07/06 10:57:15;;;;;;;1.60;1.50;;;20.70;56.00;;;;;;5035272;28;20049;-65
2022/07/06 11:00:04;;;;;;;1.13;1.13;;;20.70;56.10;;;;;;5035467;28;20543;-65
2022/07/06 11:02:38;;;;;;;0.95;0.95;;;20.60;56.00;;;;;;5036065;28;20134;-65
2022/07/06 11:05:12;;;;;;;1.40;1.30;;;20.60;56.60;;;;;;5031105;28;20139;-64
2022/07/06 11:07:50;;;;;;;1.20;1.20;;;20.60;56.70;;;;;;5041148;28;20651;-64
2022/07/06 11:10:17;;;;;;;1.05;1.05;;;20.60;56.80;;;;;;5037784;28;20080;-64
2022/07/06 11:12:45;;;;;;;1.30;1.17;;;20.60;56.80;;;;;;5038224;28;20041;-64
2022/07/06 11:15:12;;;;;;;0.85;0.85;;;20.60;56.90;;;;;;5037032;28;20048;-63
2022/07/06 11:18:03;;;;;;;1.10;1.10;;;20.60;57.00;;;;;;5039089;28;20158;-66
2022/07/06 11:20:30;;;;;;;1.45;1.30;;;20.60;57.00;;;;;;5041325;28;20540;-64
2022/07/06 11:23:05;;;;;;;1.73;1.30;;;20.70;57.10;;;;;;5035473;28;20055;-64
2022/07/06 11:25:33;;;;;;;2.25;1.35;;;20.80;56.90;;;;;;5034312;28;20221;-64
2022/07/06 11:28:00;;;;;;;1.27;1.27;;;20.80;56.70;;;;;;5033511;28;20049;-65
2022/07/06 11:30:28;;;;;;;1.45;1.30;;;20.80;56.70;;;;;;5033976;28;20049;-65
2022/07/06 11:33:01;;;;;;;1.20;1.20;;;20.80;56.60;;;;;;5031073;28;20597;-64
2022/07/06 11:35:28;;;;;;;1.27;1.27;;;20.80;56.60;;;;;;5033157;28;20393;-65
2022/07/06 11:37:55;;;;;;;2.58;1.33;;;20.80;56.70;;;;;;5032548;28;20057;-65
2022/07/06 11:40:22;;;;;;;1.40;1.40;;;20.90;56.60;;;;;;5035151;28;20136;-65
2022/07/06 11:42:53;;;;;;;1.65;1.55;;;20.90;56.60;;;;;;5036918;28;20053;-62
2022/07/06 11:45:26;;;;;;;1.52;1.42;;;20.90;56.50;;;;;;5031264;28;20204;-64
2022/07/06 11:48:10;;;;;;;1.08;1.08;;;20.90;56.60;;;;;;5035276;28;20099;-66
2022/07/06 11:50:37;;;;;;;1.30;1.20;;;21.00;56.60;;;;;;5031851;28;20149;-64
2022/07/06 11:53:04;;;;;;;1.27;1.20;;;21.00;56.50;;;;;;5038000;28;20067;-64
2022/07/06 11:55:33;;;;;;;2.80;1.30;;;21.00;56.60;;;;;;5033364;28;20122;-64
2022/07/06 11:58:01;;;;;;;1.60;1.50;;;21.00;56.40;;;;;;5037581;28;20106;-64
2022/07/06 12:00:28;;;;;;;1.10;1.10;;;21.00;56.40;;;;;;5036239;28;20057;-64
2022/07/06 12:03:03;;;;;;;1.02;1.02;;;21.00;56.20;;;;;;5029021;28;20478;-64
2022/07/06 12:05:31;;;;;;;1.40;1.40;;;21.00;56.20;;;;;;5046153;28;20381;-63
2022/07/06 12:08:08;;;;;;;1.90;1.65;;;21.00;56.10;;;;;;5036164;28;20084;-64
2022/07/06 12:10:37;;;;;;;1.85;1.73;;;21.00;56.10;;;;;;5034304;28;20315;-63
2022/07/06 12:13:05;;;;;;;1.20;1.20;;;21.00;56.10;;;;;;5036332;28;20111;-64
2022/07/06 12:15:33;;;;;;;1.20;1.15;;;21.00;56.00;;;;;;5047980;28;20123;-63
2022/07/06 12:18:01;;;;;;;1.42;1.33;;;21.10;56.10;;;;;;5045524;28;20114;-65
2022/07/06 12:20:29;;;;;;;2.17;1.40;;;21.10;55.70;;;;;;5038904;28;20049;-65
2022/07/06 12:23:04;;;;;;;1.00;1.00;;;21.20;55.80;;;;;;5034305;28;20063;-65
2022/07/06 12:25:33;;;;;;;1.45;1.45;;;21.20;55.80;;;;;;5033147;28;20049;-62
2022/07/06 12:28:00;;;;;;;1.30;1.30;;;21.20;55.80;;;;;;5035291;28;20053;-63
2022/07/06 12:30:27;;;;;;;1.50;1.40;;;21.20;55.80;;;;;;5032386;28;20078;-65
2022/07/06 12:33:17;;;;;;;2.53;1.20;;;21.30;55.80;;;;;;5028831;28;20052;-65
2022/07/06 12:35:45;;;;;;;1.75;1.13;;;21.30;55.80;;;;;;5030462;28;22697;-63
2022/07/06 12:38:13;;;;;;;1.35;1.17;;;21.30;55.70;;;;;;5030073;28;20056;-64
2022/07/06 12:40:40;;;;;;;5.03;1.20;;;21.30;55.60;;;;;;5036232;28;20051;-64
2022/07/06 12:43:07;;;;;;;1.40;1.30;;;21.30;55.60;;;;;;5030105;28;20555;-66
2022/07/06 12:45:34;;;;;;;1.35;1.30;;;21.30;56.10;;;;;;5032203;28;20058;-66
2022/07/06 12:48:05;;;;;;;3.70;1.13;;;21.30;55.70;;;;;;5031799;28;20375;-65
2022/07/06 12:50:34;;;;;;;;;;;21.30;55.60;;;;;;5064606;28;20140;-64
2022/07/06 12:53:02;;;;;;;1.48;1.10;;;21.30;55.60;;;;;;5036983;28;19921;-65
2022/07/06 12:55:30;;;;;;;2.95;1.33;;;21.30;55.70;;;;;;5032355;28;20098;-64
2022/07/06 12:57:58;;;;;;;1.08;1.08;;;21.30;55.60;;;;;;5035371;28;20133;-65
2022/07/06 13:00:25;;;;;;;3.17;1.15;;;21.30;55.50;;;;;;5032216;28;20118;-64
2022/07/06 13:02:53;;;;;;;0.75;0.75;;;21.30;55.70;;;;;;5032666;28;20049;-66